sensor_id;sensor_type;location;lat;lon;timestamp;P1;durP1;ratioP1;P2;durP2;ratioP2
12848;SDS011;6493;50.928;7.172;2022-11-23T00:03:03;1.77;;;0.80;;
12848;SDS011;6493;50.928;7.172;2022-11-23T00:08:06;1.60;;;0.50;;
12848;SDS011;6493;50.928;7.172;2022-11-23T00:13:10;2.07;;;0.70;;
12848;SDS011;6493;50.928;7.172;2022-11-23T00:18:15;1.30;;;0.47;;
12848;SDS011;6493;50.928;7.172;2022-11-23T00:23:19;0.87;;;0.50;;
12848;SDS011;6493;50.928;7.172;2022-11-23T00:28:22;0.80;;;0.50;;
12848;SDS011;6493;50.928;7.172;2022-11-23T00:33:27;0.90;;;0.50;;
12848;SDS011;6493;50.928;7.172;2022-11-23T00:38:31;0.57;;;0.53;;
12848;SDS011;6493;50.928;7.172;2022-11-23T00:43:35;1.83;;;0.80;;
12848;SDS011;6493;50.928;7.172;2022-11-23T00:48:41;2.43;;;0.77;;
12848;SDS011;6493;50.928;7.172;2022-11-23T00:53:45;1.57;;;0.60;;
12848;SDS011;6493;50.928;7.172;2022-11-23T00:58:49;0.50;;;0.30;;
12848;SDS011;6493;50.928;7.172;2022-11-23T01:03:56;0.80;;;0.40;;
12848;SDS011;6493;50.928;7.172;2022-11-23T01:09:04;0.83;;;0.57;;
12848;SDS011;6493;50.928;7.172;2022-11-23T01:14:10;0.77;;;0.60;;
12848;SDS011;6493;50.928;7.172;2022-11-23T01:19:16;1.20;;;0.37;;
12848;SDS011;6493;50.928;7.172;2022-11-23T01:24:23;0.50;;;0.30;;
12848;SDS011;6493;50.928;7.172;2022-11-23T01:29:26;0.63;;;0.40;;
12848;SDS011;6493;50.928;7.172;2022-11-23T01:34:36;0.97;;;0.50;;
12848;SDS011;6493;50.928;7.172;2022-11-23T01:39:39;1.23;;;0.43;;
12848;SDS011;6493;50.928;7.172;2022-11-23T01:44:43;0.63;;;0.30;;
12848;SDS011;6493;50.928;7.172;2022-11-23T01:49:48;1.37;;;0.60;;
12848;SDS011;6493;50.928;7.172;2022-11-23T01:54:55;0.97;;;0.53;;
12848;SDS011;6493;50.928;7.172;2022-11-23T02:00:08;1.27;;;0.50;;
12848;SDS011;6493;50.928;7.172;2022-11-23T02:05:15;2.43;;;0.60;;
12848;SDS011;6493;50.928;7.172;2022-11-23T02:10:21;1.63;;;0.80;;
12848;SDS011;6493;50.928;7.172;2022-11-23T02:15:25;1.27;;;0.60;;
12848;SDS011;6493;50.928;7.172;2022-11-23T02:20:30;0.90;;;0.60;;
12848;SDS011;6493;50.928;7.172;2022-11-23T02:25:35;0.53;;;0.33;;
12848;SDS011;6493;50.928;7.172;2022-11-23T02:30:47;1.50;;;0.50;;
12848;SDS011;6493;50.928;7.172;2022-11-23T02:35:59;2.23;;;0.67;;
12848;SDS011;6493;50.928;7.172;2022-11-23T02:41:03;0.93;;;0.60;;
12848;SDS011;6493;50.928;7.172;2022-11-23T02:46:09;1.93;;;0.60;;
12848;SDS011;6493;50.928;7.172;2022-11-23T02:51:14;2.57;;;0.80;;
12848;SDS011;6493;50.928;7.172;2022-11-23T02:56:17;1.90;;;0.60;;
12848;SDS011;6493;50.928;7.172;2022-11-23T03:01:23;2.43;;;0.77;;
12848;SDS011;6493;50.928;7.172;2022-11-23T03:06:27;3.33;;;1.00;;
12848;SDS011;6493;50.928;7.172;2022-11-23T03:11:31;1.50;;;0.70;;
12848;SDS011;6493;50.928;7.172;2022-11-23T03:16:37;2.13;;;0.70;;
12848;SDS011;6493;50.928;7.172;2022-11-23T03:21:42;0.87;;;0.37;;
12848;SDS011;6493;50.928;7.172;2022-11-23T03:26:45;1.73;;;0.53;;
12848;SDS011;6493;50.928;7.172;2022-11-23T03:31:54;1.63;;;0.73;;
12848;SDS011;6493;50.928;7.172;2022-11-23T03:36:58;1.83;;;0.60;;
12848;SDS011;6493;50.928;7.172;2022-11-23T03:42:02;2.80;;;0.90;;
12848;SDS011;6493;50.928;7.172;2022-11-23T03:47:10;1.43;;;0.70;;
12848;SDS011;6493;50.928;7.172;2022-11-23T03:52:13;1.73;;;1.00;;
12848;SDS011;6493;50.928;7.172;2022-11-23T03:57:18;1.60;;;0.83;;
12848;SDS011;6493;50.928;7.172;2022-11-23T04:02:24;1.63;;;0.50;;
12848;SDS011;6493;50.928;7.172;2022-11-23T04:07:38;1.97;;;0.70;;
12848;SDS011;6493;50.928;7.172;2022-11-23T04:12:42;1.87;;;1.00;;
12848;SDS011;6493;50.928;7.172;2022-11-23T04:17:49;1.40;;;0.77;;
12848;SDS011;6493;50.928;7.172;2022-11-23T04:22:53;2.23;;;0.80;;
12848;SDS011;6493;50.928;7.172;2022-11-23T04:27:59;1.30;;;1.00;;
12848;SDS011;6493;50.928;7.172;2022-11-23T04:33:05;3.33;;;1.07;;
12848;SDS011;6493;50.928;7.172;2022-11-23T04:38:08;1.47;;;0.60;;
12848;SDS011;6493;50.928;7.172;2022-11-23T04:43:12;2.83;;;0.90;;
12848;SDS011;6493;50.928;7.172;2022-11-23T04:48:18;2.50;;;0.90;;
12848;SDS011;6493;50.928;7.172;2022-11-23T04:53:22;0.90;;;0.70;;
12848;SDS011;6493;50.928;7.172;2022-11-23T04:58:26;1.73;;;0.70;;
12848;SDS011;6493;50.928;7.172;2022-11-23T05:03:36;3.97;;;1.33;;
12848;SDS011;6493;50.928;7.172;2022-11-23T05:08:42;3.30;;;0.60;;
12848;SDS011;6493;50.928;7.172;2022-11-23T05:14:12;1.00;;;0.60;;
12848;SDS011;6493;50.928;7.172;2022-11-23T05:19:17;3.50;;;0.90;;
12848;SDS011;6493;50.928;7.172;2022-11-23T05:24:21;2.53;;;0.83;;
12848;SDS011;6493;50.928;7.172;2022-11-23T05:29:37;1.00;;;0.67;;
12848;SDS011;6493;50.928;7.172;2022-11-23T05:34:43;1.97;;;0.80;;
12848;SDS011;6493;50.928;7.172;2022-11-23T05:39:50;2.70;;;0.87;;
12848;SDS011;6493;50.928;7.172;2022-11-23T05:44:55;1.00;;;0.67;;
12848;SDS011;6493;50.928;7.172;2022-11-23T05:50:09;2.20;;;1.00;;
12848;SDS011;6493;50.928;7.172;2022-11-23T05:55:17;1.70;;;0.83;;
12848;SDS011;6493;50.928;7.172;2022-11-23T06:00:22;4.40;;;1.00;;
12848;SDS011;6493;50.928;7.172;2022-11-23T06:05:34;5.23;;;1.60;;
12848;SDS011;6493;50.928;7.172;2022-11-23T06:10:38;2.73;;;1.10;;
12848;SDS011;6493;50.928;7.172;2022-11-23T06:15:41;2.33;;;0.90;;
12848;SDS011;6493;50.928;7.172;2022-11-23T06:20:48;2.87;;;1.17;;
12848;SDS011;6493;50.928;7.172;2022-11-23T06:25:51;1.90;;;0.80;;
12848;SDS011;6493;50.928;7.172;2022-11-23T06:31:00;3.50;;;1.33;;
12848;SDS011;6493;50.928;7.172;2022-11-23T06:36:08;1.90;;;1.00;;
12848;SDS011;6493;50.928;7.172;2022-11-23T06:41:19;3.60;;;1.13;;
12848;SDS011;6493;50.928;7.172;2022-11-23T06:46:22;4.97;;;1.40;;
12848;SDS011;6493;50.928;7.172;2022-11-23T06:51:27;4.37;;;1.40;;
12848;SDS011;6493;50.928;7.172;2022-11-23T06:56:32;1.97;;;1.27;;
12848;SDS011;6493;50.928;7.172;2022-11-23T07:01:36;4.23;;;1.20;;
12848;SDS011;6493;50.928;7.172;2022-11-23T07:06:45;2.80;;;1.57;;
12848;SDS011;6493;50.928;7.172;2022-11-23T07:12:01;3.87;;;1.30;;
12848;SDS011;6493;50.928;7.172;2022-11-23T07:17:05;2.10;;;1.30;;
12848;SDS011;6493;50.928;7.172;2022-11-23T07:22:11;3.30;;;1.33;;
12848;SDS011;6493;50.928;7.172;2022-11-23T07:27:15;3.23;;;1.30;;
12848;SDS011;6493;50.928;7.172;2022-11-23T07:32:19;3.00;;;0.80;;
12848;SDS011;6493;50.928;7.172;2022-11-23T07:37:25;5.00;;;1.40;;
12848;SDS011;6493;50.928;7.172;2022-11-23T07:42:29;4.77;;;1.47;;
12848;SDS011;6493;50.928;7.172;2022-11-23T07:47:36;4.77;;;1.83;;
12848;SDS011;6493;50.928;7.172;2022-11-23T07:52:42;1.63;;;1.00;;
12848;SDS011;6493;50.928;7.172;2022-11-23T07:57:46;2.00;;;0.90;;
12848;SDS011;6493;50.928;7.172;2022-11-23T08:02:49;2.13;;;1.00;;
12848;SDS011;6493;50.928;7.172;2022-11-23T08:08:14;6.03;;;1.77;;
12848;SDS011;6493;50.928;7.172;2022-11-23T08:13:18;3.10;;;1.10;;
12848;SDS011;6493;50.928;7.172;2022-11-23T08:18:22;3.10;;;1.10;;
12848;SDS011;6493;50.928;7.172;2022-11-23T08:23:27;2.07;;;1.07;;
12848;SDS011;6493;50.928;7.172;2022-11-23T08:28:31;5.40;;;1.50;;
12848;SDS011;6493;50.928;7.172;2022-11-23T08:33:34;3.30;;;1.10;;
12848;SDS011;6493;50.928;7.172;2022-11-23T08:38:39;5.03;;;1.30;;
12848;SDS011;6493;50.928;7.172;2022-11-23T08:43:43;5.27;;;2.10;;
12848;SDS011;6493;50.928;7.172;2022-11-23T08:48:46;5.43;;;1.70;;
12848;SDS011;6493;50.928;7.172;2022-11-23T08:53:51;2.83;;;1.17;;
12848;SDS011;6493;50.928;7.172;2022-11-23T08:58:55;3.53;;;1.27;;
12848;SDS011;6493;50.928;7.172;2022-11-23T09:03:58;3.10;;;1.10;;
12848;SDS011;6493;50.928;7.172;2022-11-23T09:09:04;4.00;;;1.60;;
12848;SDS011;6493;50.928;7.172;2022-11-23T09:14:07;4.17;;;1.23;;
12848;SDS011;6493;50.928;7.172;2022-11-23T09:19:12;4.87;;;1.63;;
12848;SDS011;6493;50.928;7.172;2022-11-23T09:24:17;3.93;;;1.53;;
12848;SDS011;6493;50.928;7.172;2022-11-23T09:29:20;3.47;;;1.40;;
12848;SDS011;6493;50.928;7.172;2022-11-23T09:34:26;3.90;;;1.37;;
12848;SDS011;6493;50.928;7.172;2022-11-23T09:39:31;3.63;;;1.40;;
12848;SDS011;6493;50.928;7.172;2022-11-23T09:44:39;4.43;;;1.23;;
12848;SDS011;6493;50.928;7.172;2022-11-23T09:49:58;3.53;;;1.30;;
12848;SDS011;6493;50.928;7.172;2022-11-23T09:55:12;3.00;;;1.13;;
12848;SDS011;6493;50.928;7.172;2022-11-23T10:00:19;7.90;;;1.30;;
12848;SDS011;6493;50.928;7.172;2022-11-23T10:05:25;4.13;;;1.17;;
12848;SDS011;6493;50.928;7.172;2022-11-23T10:10:38;4.97;;;1.63;;
12848;SDS011;6493;50.928;7.172;2022-11-23T10:15:51;6.00;;;1.83;;
12848;SDS011;6493;50.928;7.172;2022-11-23T10:21:05;6.70;;;1.87;;
12848;SDS011;6493;50.928;7.172;2022-11-23T10:26:18;5.10;;;1.43;;
12848;SDS011;6493;50.928;7.172;2022-11-23T10:31:23;4.70;;;1.67;;
12848;SDS011;6493;50.928;7.172;2022-11-23T10:36:27;4.30;;;1.60;;
12848;SDS011;6493;50.928;7.172;2022-11-23T10:41:32;6.93;;;1.60;;
12848;SDS011;6493;50.928;7.172;2022-11-23T10:46:37;3.80;;;1.10;;
12848;SDS011;6493;50.928;7.172;2022-11-23T10:51:47;3.13;;;1.03;;
12848;SDS011;6493;50.928;7.172;2022-11-23T10:56:58;4.13;;;1.40;;
12848;SDS011;6493;50.928;7.172;2022-11-23T11:02:14;3.63;;;1.40;;
12848;SDS011;6493;50.928;7.172;2022-11-23T11:07:23;3.80;;;1.40;;
12848;SDS011;6493;50.928;7.172;2022-11-23T11:12:32;2.40;;;1.30;;
12848;SDS011;6493;50.928;7.172;2022-11-23T11:17:36;5.27;;;1.07;;
12848;SDS011;6493;50.928;7.172;2022-11-23T11:22:40;4.10;;;1.30;;
12848;SDS011;6493;50.928;7.172;2022-11-23T11:27:51;4.70;;;1.30;;
12848;SDS011;6493;50.928;7.172;2022-11-23T11:32:56;2.10;;;1.00;;
12848;SDS011;6493;50.928;7.172;2022-11-23T11:38:07;5.43;;;1.30;;
12848;SDS011;6493;50.928;7.172;2022-11-23T11:43:19;4.33;;;1.07;;
12848;SDS011;6493;50.928;7.172;2022-11-23T11:48:36;3.87;;;1.00;;
12848;SDS011;6493;50.928;7.172;2022-11-23T11:53:47;5.33;;;1.50;;
12848;SDS011;6493;50.928;7.172;2022-11-23T11:59:01;1.77;;;0.90;;
12848;SDS011;6493;50.928;7.172;2022-11-23T12:04:13;2.37;;;0.87;;
12848;SDS011;6493;50.928;7.172;2022-11-23T12:09:21;4.03;;;1.60;;
12848;SDS011;6493;50.928;7.172;2022-11-23T12:14:33;3.23;;;0.93;;
12848;SDS011;6493;50.928;7.172;2022-11-23T12:19:38;2.47;;;1.27;;
12848;SDS011;6493;50.928;7.172;2022-11-23T12:25:01;3.00;;;1.33;;
12848;SDS011;6493;50.928;7.172;2022-11-23T12:30:23;2.23;;;1.00;;
12848;SDS011;6493;50.928;7.172;2022-11-23T12:35:39;4.10;;;1.13;;
12848;SDS011;6493;50.928;7.172;2022-11-23T12:40:52;4.40;;;1.10;;
12848;SDS011;6493;50.928;7.172;2022-11-23T12:46:08;2.30;;;1.57;;
12848;SDS011;6493;50.928;7.172;2022-11-23T12:51:19;3.87;;;1.47;;
12848;SDS011;6493;50.928;7.172;2022-11-23T12:56:37;2.27;;;1.37;;
12848;SDS011;6493;50.928;7.172;2022-11-23T13:01:54;4.40;;;1.40;;
12848;SDS011;6493;50.928;7.172;2022-11-23T13:07:07;2.37;;;1.37;;
12848;SDS011;6493;50.928;7.172;2022-11-23T13:12:44;1.90;;;1.27;;
12848;SDS011;6493;50.928;7.172;2022-11-23T13:18:05;3.87;;;1.70;;
12848;SDS011;6493;50.928;7.172;2022-11-23T13:23:15;4.20;;;1.23;;
12848;SDS011;6493;50.928;7.172;2022-11-23T13:28:26;2.80;;;1.30;;
12848;SDS011;6493;50.928;7.172;2022-11-23T13:33:36;4.03;;;1.40;;
12848;SDS011;6493;50.928;7.172;2022-11-23T13:38:43;2.77;;;1.40;;
12848;SDS011;6493;50.928;7.172;2022-11-23T13:43:46;2.10;;;0.90;;
12848;SDS011;6493;50.928;7.172;2022-11-23T13:48:53;2.73;;;1.20;;
12848;SDS011;6493;50.928;7.172;2022-11-23T13:53:59;1.67;;;1.00;;
12848;SDS011;6493;50.928;7.172;2022-11-23T13:59:24;1.10;;;0.80;;
12848;SDS011;6493;50.928;7.172;2022-11-23T14:04:32;2.90;;;0.93;;
12848;SDS011;6493;50.928;7.172;2022-11-23T14:09:38;3.63;;;1.03;;
12848;SDS011;6493;50.928;7.172;2022-11-23T14:14:52;1.60;;;1.00;;
12848;SDS011;6493;50.928;7.172;2022-11-23T14:20:10;3.57;;;1.50;;
12848;SDS011;6493;50.928;7.172;2022-11-23T14:25:38;2.13;;;0.93;;
12848;SDS011;6493;50.928;7.172;2022-11-23T14:30:55;2.90;;;1.00;;
12848;SDS011;6493;50.928;7.172;2022-11-23T14:36:15;2.30;;;0.80;;
12848;SDS011;6493;50.928;7.172;2022-11-23T14:41:25;4.40;;;1.10;;
12848;SDS011;6493;50.928;7.172;2022-11-23T14:46:32;2.27;;;1.00;;
12848;SDS011;6493;50.928;7.172;2022-11-23T14:51:40;3.57;;;0.93;;
12848;SDS011;6493;50.928;7.172;2022-11-23T14:56:46;2.57;;;0.83;;
12848;SDS011;6493;50.928;7.172;2022-11-23T15:01:52;3.33;;;1.10;;
12848;SDS011;6493;50.928;7.172;2022-11-23T15:07:00;2.47;;;0.83;;
12848;SDS011;6493;50.928;7.172;2022-11-23T15:12:17;2.57;;;0.70;;
12848;SDS011;6493;50.928;7.172;2022-11-23T15:17:23;2.27;;;0.90;;
12848;SDS011;6493;50.928;7.172;2022-11-23T15:22:29;2.67;;;1.00;;
12848;SDS011;6493;50.928;7.172;2022-11-23T15:27:35;5.03;;;1.17;;
12848;SDS011;6493;50.928;7.172;2022-11-23T15:32:41;2.00;;;0.80;;
12848;SDS011;6493;50.928;7.172;2022-11-23T15:37:46;1.70;;;0.60;;
12848;SDS011;6493;50.928;7.172;2022-11-23T15:42:51;0.67;;;0.60;;
12848;SDS011;6493;50.928;7.172;2022-11-23T15:47:58;2.23;;;1.00;;
12848;SDS011;6493;50.928;7.172;2022-11-23T15:53:03;1.00;;;0.63;;
12848;SDS011;6493;50.928;7.172;2022-11-23T15:58:08;1.40;;;0.77;;
12848;SDS011;6493;50.928;7.172;2022-11-23T16:03:20;1.57;;;0.80;;
12848;SDS011;6493;50.928;7.172;2022-11-23T16:08:33;2.63;;;0.90;;
12848;SDS011;6493;50.928;7.172;2022-11-23T16:13:38;1.73;;;0.60;;
12848;SDS011;6493;50.928;7.172;2022-11-23T16:18:42;0.80;;;0.60;;
12848;SDS011;6493;50.928;7.172;2022-11-23T16:23:50;3.90;;;0.63;;
12848;SDS011;6493;50.928;7.172;2022-11-23T16:28:56;2.37;;;0.87;;
12848;SDS011;6493;50.928;7.172;2022-11-23T16:34:01;1.70;;;0.80;;
12848;SDS011;6493;50.928;7.172;2022-11-23T16:39:06;0.93;;;0.77;;
12848;SDS011;6493;50.928;7.172;2022-11-23T16:44:09;1.30;;;0.80;;
12848;SDS011;6493;50.928;7.172;2022-11-23T16:49:14;1.20;;;0.63;;
12848;SDS011;6493;50.928;7.172;2022-11-23T16:54:20;0.67;;;0.50;;
12848;SDS011;6493;50.928;7.172;2022-11-23T16:59:32;1.20;;;0.70;;
12848;SDS011;6493;50.928;7.172;2022-11-23T17:04:37;1.30;;;0.60;;
12848;SDS011;6493;50.928;7.172;2022-11-23T17:09:42;1.20;;;0.80;;
12848;SDS011;6493;50.928;7.172;2022-11-23T17:14:46;6.03;;;4.07;;
12848;SDS011;6493;50.928;7.172;2022-11-23T17:19:51;6.13;;;4.73;;
12848;SDS011;6493;50.928;7.172;2022-11-23T17:24:55;4.60;;;2.90;;
12848;SDS011;6493;50.928;7.172;2022-11-23T17:30:01;2.63;;;1.90;;
12848;SDS011;6493;50.928;7.172;2022-11-23T17:35:09;2.57;;;1.70;;
12848;SDS011;6493;50.928;7.172;2022-11-23T17:40:14;1.83;;;1.03;;
12848;SDS011;6493;50.928;7.172;2022-11-23T17:45:19;1.30;;;1.00;;
12848;SDS011;6493;50.928;7.172;2022-11-23T17:50:23;0.80;;;0.70;;
12848;SDS011;6493;50.928;7.172;2022-11-23T17:55:30;1.90;;;1.03;;
12848;SDS011;6493;50.928;7.172;2022-11-23T18:00:34;2.90;;;1.10;;
12848;SDS011;6493;50.928;7.172;2022-11-23T18:05:39;1.50;;;0.97;;
12848;SDS011;6493;50.928;7.172;2022-11-23T18:10:44;1.47;;;1.00;;
12848;SDS011;6493;50.928;7.172;2022-11-23T18:15:48;1.23;;;1.00;;
12848;SDS011;6493;50.928;7.172;2022-11-23T18:20:51;2.00;;;0.73;;
12848;SDS011;6493;50.928;7.172;2022-11-23T18:26:00;3.30;;;1.50;;
12848;SDS011;6493;50.928;7.172;2022-11-23T18:31:06;1.67;;;1.00;;
12848;SDS011;6493;50.928;7.172;2022-11-23T18:36:10;1.77;;;1.23;;
12848;SDS011;6493;50.928;7.172;2022-11-23T18:41:15;1.83;;;1.20;;
12848;SDS011;6493;50.928;7.172;2022-11-23T18:46:19;2.17;;;1.43;;
12848;SDS011;6493;50.928;7.172;2022-11-23T18:51:23;1.73;;;1.07;;
12848;SDS011;6493;50.928;7.172;2022-11-23T18:56:28;1.30;;;1.00;;
12848;SDS011;6493;50.928;7.172;2022-11-23T19:01:31;1.10;;;0.93;;
12848;SDS011;6493;50.928;7.172;2022-11-23T19:06:35;0.93;;;0.80;;
12848;SDS011;6493;50.928;7.172;2022-11-23T19:11:41;0.77;;;0.70;;
12848;SDS011;6493;50.928;7.172;2022-11-23T19:16:45;1.43;;;0.93;;
12848;SDS011;6493;50.928;7.172;2022-11-23T19:21:48;1.70;;;0.90;;
12848;SDS011;6493;50.928;7.172;2022-11-23T19:26:53;1.07;;;0.73;;
12848;SDS011;6493;50.928;7.172;2022-11-23T19:31:57;0.97;;;0.63;;
12848;SDS011;6493;50.928;7.172;2022-11-23T19:37:01;1.07;;;0.70;;
12848;SDS011;6493;50.928;7.172;2022-11-23T19:42:06;1.27;;;0.80;;
12848;SDS011;6493;50.928;7.172;2022-11-23T19:47:09;1.77;;;0.77;;
12848;SDS011;6493;50.928;7.172;2022-11-23T19:52:20;1.33;;;0.90;;
12848;SDS011;6493;50.928;7.172;2022-11-23T19:57:44;1.47;;;0.90;;
12848;SDS011;6493;50.928;7.172;2022-11-23T20:02:47;1.20;;;0.70;;
12848;SDS011;6493;50.928;7.172;2022-11-23T20:07:51;0.70;;;0.70;;
12848;SDS011;6493;50.928;7.172;2022-11-23T20:12:56;0.87;;;0.77;;
12848;SDS011;6493;50.928;7.172;2022-11-23T20:17:59;1.40;;;1.00;;
12848;SDS011;6493;50.928;7.172;2022-11-23T20:23:02;1.23;;;0.80;;
12848;SDS011;6493;50.928;7.172;2022-11-23T20:28:08;3.40;;;0.90;;
12848;SDS011;6493;50.928;7.172;2022-11-23T20:33:14;1.00;;;0.90;;
12848;SDS011;6493;50.928;7.172;2022-11-23T20:38:17;1.33;;;0.80;;
12848;SDS011;6493;50.928;7.172;2022-11-23T20:43:22;0.60;;;0.50;;
12848;SDS011;6493;50.928;7.172;2022-11-23T20:48:26;1.37;;;0.80;;
12848;SDS011;6493;50.928;7.172;2022-11-23T20:53:30;0.70;;;0.50;;
12848;SDS011;6493;50.928;7.172;2022-11-23T20:58:35;0.70;;;0.60;;
12848;SDS011;6493;50.928;7.172;2022-11-23T21:03:39;0.60;;;0.60;;
12848;SDS011;6493;50.928;7.172;2022-11-23T21:08:45;1.87;;;0.90;;
12848;SDS011;6493;50.928;7.172;2022-11-23T21:13:51;0.63;;;0.63;;
12848;SDS011;6493;50.928;7.172;2022-11-23T21:19:18;1.23;;;0.80;;
12848;SDS011;6493;50.928;7.172;2022-11-23T21:24:22;1.03;;;0.80;;
12848;SDS011;6493;50.928;7.172;2022-11-23T21:29:28;0.60;;;0.60;;
12848;SDS011;6493;50.928;7.172;2022-11-23T21:34:32;0.70;;;0.60;;
12848;SDS011;6493;50.928;7.172;2022-11-23T21:39:36;0.70;;;0.60;;
12848;SDS011;6493;50.928;7.172;2022-11-23T21:44:41;1.30;;;0.70;;
12848;SDS011;6493;50.928;7.172;2022-11-23T21:49:44;0.77;;;0.60;;
12848;SDS011;6493;50.928;7.172;2022-11-23T21:54:48;1.03;;;0.60;;
12848;SDS011;6493;50.928;7.172;2022-11-23T21:59:53;1.00;;;0.60;;
12848;SDS011;6493;50.928;7.172;2022-11-23T22:04:57;2.77;;;0.67;;
12848;SDS011;6493;50.928;7.172;2022-11-23T22:10:01;0.60;;;0.43;;
12848;SDS011;6493;50.928;7.172;2022-11-23T22:15:06;0.73;;;0.60;;
12848;SDS011;6493;50.928;7.172;2022-11-23T22:20:11;1.13;;;0.50;;
12848;SDS011;6493;50.928;7.172;2022-11-23T22:25:15;0.87;;;0.70;;
12848;SDS011;6493;50.928;7.172;2022-11-23T22:30:20;1.17;;;0.43;;
12848;SDS011;6493;50.928;7.172;2022-11-23T22:35:24;1.37;;;0.70;;
12848;SDS011;6493;50.928;7.172;2022-11-23T22:40:30;0.77;;;0.60;;
12848;SDS011;6493;50.928;7.172;2022-11-23T22:45:36;1.37;;;0.70;;
12848;SDS011;6493;50.928;7.172;2022-11-23T22:50:40;1.37;;;0.60;;
12848;SDS011;6493;50.928;7.172;2022-11-23T22:55:44;1.10;;;0.53;;
12848;SDS011;6493;50.928;7.172;2022-11-23T23:00:49;1.87;;;0.93;;
12848;SDS011;6493;50.928;7.172;2022-11-23T23:05:53;1.53;;;0.70;;
12848;SDS011;6493;50.928;7.172;2022-11-23T23:11:01;1.27;;;0.70;;
12848;SDS011;6493;50.928;7.172;2022-11-23T23:16:08;1.50;;;0.60;;
12848;SDS011;6493;50.928;7.172;2022-11-23T23:21:15;1.00;;;0.50;;
12848;SDS011;6493;50.928;7.172;2022-11-23T23:26:21;0.87;;;0.53;;
12848;SDS011;6493;50.928;7.172;2022-11-23T23:31:27;1.03;;;0.53;;
12848;SDS011;6493;50.928;7.172;2022-11-23T23:36:31;3.13;;;0.70;;
12848;SDS011;6493;50.928;7.172;2022-11-23T23:41:38;0.83;;;0.53;;
12848;SDS011;6493;50.928;7.172;2022-11-23T23:46:43;1.07;;;0.83;;
12848;SDS011;6493;50.928;7.172;2022-11-23T23:51:47;0.97;;;0.80;;
12848;SDS011;6493;50.928;7.172;2022-11-23T23:56:52;1.07;;;0.63;;
